sensor_id;sensor_type;location;lat;lon;timestamp;temperature;humidity
45283;DHT22;31023;44.994;1.796;2023-04-24T00:02:15;11.10;99.90
45283;DHT22;31023;44.994;1.796;2023-04-24T00:04:41;11.10;99.90
45283;DHT22;31023;44.994;1.796;2023-04-24T00:07:10;11.00;99.90
45283;DHT22;31023;44.994;1.796;2023-04-24T00:09:36;11.00;99.90
45283;DHT22;31023;44.994;1.796;2023-04-24T00:12:03;11.00;99.90
45283;DHT22;31023;44.994;1.796;2023-04-24T00:14:31;11.00;99.90
45283;DHT22;31023;44.994;1.796;2023-04-24T00:16:57;11.00;99.90
45283;DHT22;31023;44.994;1.796;2023-04-24T00:19:23;11.00;99.90
45283;DHT22;31023;44.994;1.796;2023-04-24T00:21:48;11.00;99.90
45283;DHT22;31023;44.994;1.796;2023-04-24T00:24:17;11.00;99.90
45283;DHT22;31023;44.994;1.796;2023-04-24T00:26:43;11.10;99.90
45283;DHT22;31023;44.994;1.796;2023-04-24T00:29:09;11.10;99.90
45283;DHT22;31023;44.994;1.796;2023-04-24T00:31:35;11.00;99.90
45283;DHT22;31023;44.994;1.796;2023-04-24T00:34:04;11.00;99.90
45283;DHT22;31023;44.994;1.796;2023-04-24T00:36:30;11.00;99.90
45283;DHT22;31023;44.994;1.796;2023-04-24T00:38:56;11.00;99.90
45283;DHT22;31023;44.994;1.796;2023-04-24T00:41:23;11.00;99.90
45283;DHT22;31023;44.994;1.796;2023-04-24T00:43:50;10.90;99.90
45283;DHT22;31023;44.994;1.796;2023-04-24T00:46:16;10.90;99.90
45283;DHT22;31023;44.994;1.796;2023-04-24T00:48:43;10.90;99.90
45283;DHT22;31023;44.994;1.796;2023-04-24T00:51:09;10.90;99.90
45283;DHT22;31023;44.994;1.796;2023-04-24T00:53:34;10.90;99.90
45283;DHT22;31023;44.994;1.796;2023-04-24T00:56:01;10.90;99.90
45283;DHT22;31023;44.994;1.796;2023-04-24T00:58:27;10.90;99.90
45283;DHT22;31023;44.994;1.796;2023-04-24T01:00:54;10.90;99.90
45283;DHT22;31023;44.994;1.796;2023-04-24T01:03:22;10.90;99.90
45283;DHT22;31023;44.994;1.796;2023-04-24T01:05:49;10.90;99.90
45283;DHT22;31023;44.994;1.796;2023-04-24T01:08:16;10.70;99.90
45283;DHT22;31023;44.994;1.796;2023-04-24T01:10:44;10.80;99.90
45283;DHT22;31023;44.994;1.796;2023-04-24T01:13:10;10.80;99.90
45283;DHT22;31023;44.994;1.796;2023-04-24T01:15:36;11.00;99.90
45283;DHT22;31023;44.994;1.796;2023-04-24T01:18:02;11.00;99.90
45283;DHT22;31023;44.994;1.796;2023-04-24T01:20:28;11.10;99.90
45283;DHT22;31023;44.994;1.796;2023-04-24T01:22:55;11.00;99.90
45283;DHT22;31023;44.994;1.796;2023-04-24T01:25:23;10.90;99.90
45283;DHT22;31023;44.994;1.796;2023-04-24T01:27:50;10.80;99.90
45283;DHT22;31023;44.994;1.796;2023-04-24T01:30:16;10.80;99.90
45283;DHT22;31023;44.994;1.796;2023-04-24T01:32:43;10.70;99.90
45283;DHT22;31023;44.994;1.796;2023-04-24T01:35:10;10.60;99.90
45283;DHT22;31023;44.994;1.796;2023-04-24T01:37:36;10.50;99.90
45283;DHT22;31023;44.994;1.796;2023-04-24T01:40:06;10.60;99.90
45283;DHT22;31023;44.994;1.796;2023-04-24T01:42:32;10.70;99.90
45283;DHT22;31023;44.994;1.796;2023-04-24T01:45:00;10.60;99.90
45283;DHT22;31023;44.994;1.796;2023-04-24T01:47:27;10.60;99.90
45283;DHT22;31023;44.994;1.796;2023-04-24T01:49:53;10.60;99.90
45283;DHT22;31023;44.994;1.796;2023-04-24T01:52:19;10.70;99.90
45283;DHT22;31023;44.994;1.796;2023-04-24T01:54:45;10.70;99.90
45283;DHT22;31023;44.994;1.796;2023-04-24T01:57:11;10.80;99.90
45283;DHT22;31023;44.994;1.796;2023-04-24T01:59:36;10.80;99.90
45283;DHT22;31023;44.994;1.796;2023-04-24T02:02:03;10.80;99.90
45283;DHT22;31023;44.994;1.796;2023-04-24T02:04:29;10.80;99.90
45283;DHT22;31023;44.994;1.796;2023-04-24T02:06:55;10.60;99.90
45283;DHT22;31023;44.994;1.796;2023-04-24T02:09:21;10.60;99.90
45283;DHT22;31023;44.994;1.796;2023-04-24T02:11:46;10.60;99.90
45283;DHT22;31023;44.994;1.796;2023-04-24T02:14:12;10.60;99.90
45283;DHT22;31023;44.994;1.796;2023-04-24T02:16:38;10.60;99.90
45283;DHT22;31023;44.994;1.796;2023-04-24T02:19:03;10.70;99.90
45283;DHT22;31023;44.994;1.796;2023-04-24T02:21:29;10.80;99.90
45283;DHT22;31023;44.994;1.796;2023-04-24T02:23:56;10.70;99.90
45283;DHT22;31023;44.994;1.796;2023-04-24T02:26:22;10.70;99.90
45283;DHT22;31023;44.994;1.796;2023-04-24T02:28:48;10.70;99.90
45283;DHT22;31023;44.994;1.796;2023-04-24T02:31:14;10.60;99.90
45283;DHT22;31023;44.994;1.796;2023-04-24T02:33:40;10.60;99.90
45283;DHT22;31023;44.994;1.796;2023-04-24T02:36:05;10.60;99.90
45283;DHT22;31023;44.994;1.796;2023-04-24T02:38:31;10.60;99.90
45283;DHT22;31023;44.994;1.796;2023-04-24T02:40:57;10.60;99.90
45283;DHT22;31023;44.994;1.796;2023-04-24T02:43:22;10.70;99.90
45283;DHT22;31023;44.994;1.796;2023-04-24T02:45:48;10.70;99.90
45283;DHT22;31023;44.994;1.796;2023-04-24T02:48:14;10.70;99.90
45283;DHT22;31023;44.994;1.796;2023-04-24T02:50:40;10.70;99.90
45283;DHT22;31023;44.994;1.796;2023-04-24T02:53:06;10.60;99.90
45283;DHT22;31023;44.994;1.796;2023-04-24T02:55:32;10.80;99.90
45283;DHT22;31023;44.994;1.796;2023-04-24T02:57:57;10.80;99.90
45283;DHT22;31023;44.994;1.796;2023-04-24T03:00:23;10.80;99.90
45283;DHT22;31023;44.994;1.796;2023-04-24T03:02:49;10.80;99.90
45283;DHT22;31023;44.994;1.796;2023-04-24T03:05:15;10.80;99.90
45283;DHT22;31023;44.994;1.796;2023-04-24T03:07:41;10.80;99.90
45283;DHT22;31023;44.994;1.796;2023-04-24T03:10:07;10.90;99.90
45283;DHT22;31023;44.994;1.796;2023-04-24T03:12:33;10.90;99.90
45283;DHT22;31023;44.994;1.796;2023-04-24T03:14:58;10.90;99.90
45283;DHT22;31023;44.994;1.796;2023-04-24T03:17:24;10.90;99.90
45283;DHT22;31023;44.994;1.796;2023-04-24T03:19:50;10.90;99.90
45283;DHT22;31023;44.994;1.796;2023-04-24T03:22:16;11.00;99.90
45283;DHT22;31023;44.994;1.796;2023-04-24T03:24:41;11.00;99.90
45283;DHT22;31023;44.994;1.796;2023-04-24T03:27:07;10.80;99.90
45283;DHT22;31023;44.994;1.796;2023-04-24T03:29:33;10.90;99.90
45283;DHT22;31023;44.994;1.796;2023-04-24T03:31:58;10.80;99.90
45283;DHT22;31023;44.994;1.796;2023-04-24T03:34:24;10.80;99.90
45283;DHT22;31023;44.994;1.796;2023-04-24T03:36:50;10.80;99.90
45283;DHT22;31023;44.994;1.796;2023-04-24T03:39:16;10.80;99.90
45283;DHT22;31023;44.994;1.796;2023-04-24T03:41:41;10.70;99.90
45283;DHT22;31023;44.994;1.796;2023-04-24T03:44:07;10.70;99.90
45283;DHT22;31023;44.994;1.796;2023-04-24T03:46:33;10.20;99.90
45283;DHT22;31023;44.994;1.796;2023-04-24T03:48:58;9.90;99.90
45283;DHT22;31023;44.994;1.796;2023-04-24T03:51:24;9.80;99.90
45283;DHT22;31023;44.994;1.796;2023-04-24T03:53:50;9.60;99.90
45283;DHT22;31023;44.994;1.796;2023-04-24T03:56:16;9.60;99.90
45283;DHT22;31023;44.994;1.796;2023-04-24T03:58:42;9.80;99.90
45283;DHT22;31023;44.994;1.796;2023-04-24T04:01:08;9.90;99.90
45283;DHT22;31023;44.994;1.796;2023-04-24T04:03:33;10.20;99.90
45283;DHT22;31023;44.994;1.796;2023-04-24T04:05:59;10.20;99.90
45283;DHT22;31023;44.994;1.796;2023-04-24T04:08:25;10.20;99.90
45283;DHT22;31023;44.994;1.796;2023-04-24T04:10:51;10.20;99.90
45283;DHT22;31023;44.994;1.796;2023-04-24T04:13:16;10.20;99.90
45283;DHT22;31023;44.994;1.796;2023-04-24T04:15:43;10.20;99.90
45283;DHT22;31023;44.994;1.796;2023-04-24T04:18:08;10.20;99.90
45283;DHT22;31023;44.994;1.796;2023-04-24T04:20:34;10.10;99.90
45283;DHT22;31023;44.994;1.796;2023-04-24T04:23:00;10.10;99.90
45283;DHT22;31023;44.994;1.796;2023-04-24T04:25:25;10.10;99.90
45283;DHT22;31023;44.994;1.796;2023-04-24T04:27:51;10.00;99.90
45283;DHT22;31023;44.994;1.796;2023-04-24T04:30:17;9.70;99.90
45283;DHT22;31023;44.994;1.796;2023-04-24T04:32:43;9.40;99.90
45283;DHT22;31023;44.994;1.796;2023-04-24T04:35:09;9.20;99.90
45283;DHT22;31023;44.994;1.796;2023-04-24T04:37:35;9.10;99.90
45283;DHT22;31023;44.994;1.796;2023-04-24T04:40:01;9.00;99.90
45283;DHT22;31023;44.994;1.796;2023-04-24T04:42:32;9.00;99.90
45283;DHT22;31023;44.994;1.796;2023-04-24T04:44:58;9.00;99.90
45283;DHT22;31023;44.994;1.796;2023-04-24T04:47:23;9.00;99.90
45283;DHT22;31023;44.994;1.796;2023-04-24T04:49:49;9.00;99.90
45283;DHT22;31023;44.994;1.796;2023-04-24T04:52:17;9.10;99.90
45283;DHT22;31023;44.994;1.796;2023-04-24T04:54:43;9.20;99.90
45283;DHT22;31023;44.994;1.796;2023-04-24T04:57:08;9.20;99.90
45283;DHT22;31023;44.994;1.796;2023-04-24T04:59:34;9.10;99.90
45283;DHT22;31023;44.994;1.796;2023-04-24T05:02:00;9.00;99.90
45283;DHT22;31023;44.994;1.796;2023-04-24T05:04:26;9.00;99.90
45283;DHT22;31023;44.994;1.796;2023-04-24T05:06:52;9.20;99.90
45283;DHT22;31023;44.994;1.796;2023-04-24T05:09:18;9.20;99.90
45283;DHT22;31023;44.994;1.796;2023-04-24T05:11:44;9.30;99.90
45283;DHT22;31023;44.994;1.796;2023-04-24T05:14:10;9.40;99.90
45283;DHT22;31023;44.994;1.796;2023-04-24T05:16:35;9.40;99.90
45283;DHT22;31023;44.994;1.796;2023-04-24T05:19:02;9.70;99.90
45283;DHT22;31023;44.994;1.796;2023-04-24T05:21:28;9.70;99.90
45283;DHT22;31023;44.994;1.796;2023-04-24T05:23:54;9.80;99.90
45283;DHT22;31023;44.994;1.796;2023-04-24T05:26:20;9.90;99.90
45283;DHT22;31023;44.994;1.796;2023-04-24T05:28:46;9.90;99.90
45283;DHT22;31023;44.994;1.796;2023-04-24T05:31:11;10.00;99.90
45283;DHT22;31023;44.994;1.796;2023-04-24T05:33:37;9.70;99.90
45283;DHT22;31023;44.994;1.796;2023-04-24T05:36:03;9.60;99.90
45283;DHT22;31023;44.994;1.796;2023-04-24T05:38:30;9.60;99.90
45283;DHT22;31023;44.994;1.796;2023-04-24T05:40:56;9.70;99.90
45283;DHT22;31023;44.994;1.796;2023-04-24T05:43:22;9.70;99.90
45283;DHT22;31023;44.994;1.796;2023-04-24T05:45:47;9.80;99.90
45283;DHT22;31023;44.994;1.796;2023-04-24T05:48:13;10.20;99.90
45283;DHT22;31023;44.994;1.796;2023-04-24T05:50:39;11.30;99.90
45283;DHT22;31023;44.994;1.796;2023-04-24T05:53:05;11.50;99.90
45283;DHT22;31023;44.994;1.796;2023-04-24T05:55:32;11.70;99.90
45283;DHT22;31023;44.994;1.796;2023-04-24T05:57:58;12.00;99.90
45283;DHT22;31023;44.994;1.796;2023-04-24T06:00:24;12.30;99.90
45283;DHT22;31023;44.994;1.796;2023-04-24T06:02:50;12.20;99.90
45283;DHT22;31023;44.994;1.796;2023-04-24T06:05:16;13.00;99.90
45283;DHT22;31023;44.994;1.796;2023-04-24T06:07:43;12.00;99.90
45283;DHT22;31023;44.994;1.796;2023-04-24T06:10:09;11.60;99.90
45283;DHT22;31023;44.994;1.796;2023-04-24T06:12:35;11.50;99.90
45283;DHT22;31023;44.994;1.796;2023-04-24T06:15:02;11.30;99.90
45283;DHT22;31023;44.994;1.796;2023-04-24T06:17:27;11.00;99.90
45283;DHT22;31023;44.994;1.796;2023-04-24T06:19:53;10.70;99.90
45283;DHT22;31023;44.994;1.796;2023-04-24T06:22:19;10.70;99.90
45283;DHT22;31023;44.994;1.796;2023-04-24T06:24:44;10.60;99.90
45283;DHT22;31023;44.994;1.796;2023-04-24T06:27:10;10.60;99.90
45283;DHT22;31023;44.994;1.796;2023-04-24T06:29:36;10.50;99.90
45283;DHT22;31023;44.994;1.796;2023-04-24T06:32:02;10.60;99.90
45283;DHT22;31023;44.994;1.796;2023-04-24T06:34:27;10.80;99.90
45283;DHT22;31023;44.994;1.796;2023-04-24T06:36:54;10.70;99.90
45283;DHT22;31023;44.994;1.796;2023-04-24T06:39:20;10.80;99.90
45283;DHT22;31023;44.994;1.796;2023-04-24T06:41:46;11.00;99.90
45283;DHT22;31023;44.994;1.796;2023-04-24T06:44:11;11.30;99.90
45283;DHT22;31023;44.994;1.796;2023-04-24T06:46:37;11.60;99.90
45283;DHT22;31023;44.994;1.796;2023-04-24T06:49:03;11.50;99.90
45283;DHT22;31023;44.994;1.796;2023-04-24T06:51:28;12.20;99.90
45283;DHT22;31023;44.994;1.796;2023-04-24T06:53:54;12.00;99.90
45283;DHT22;31023;44.994;1.796;2023-04-24T06:56:21;12.20;99.90
45283;DHT22;31023;44.994;1.796;2023-04-24T06:58:47;12.50;99.90
45283;DHT22;31023;44.994;1.796;2023-04-24T07:01:13;12.60;99.90
45283;DHT22;31023;44.994;1.796;2023-04-24T07:03:39;12.90;99.90
45283;DHT22;31023;44.994;1.796;2023-04-24T07:06:05;12.80;99.90
45283;DHT22;31023;44.994;1.796;2023-04-24T07:08:31;13.40;99.90
45283;DHT22;31023;44.994;1.796;2023-04-24T07:10:58;13.30;99.90
45283;DHT22;31023;44.994;1.796;2023-04-24T07:13:24;13.00;99.90
45283;DHT22;31023;44.994;1.796;2023-04-24T07:15:50;12.50;99.90
45283;DHT22;31023;44.994;1.796;2023-04-24T07:18:17;13.50;99.90
45283;DHT22;31023;44.994;1.796;2023-04-24T07:20:43;13.70;99.90
45283;DHT22;31023;44.994;1.796;2023-04-24T07:23:10;13.60;99.90
45283;DHT22;31023;44.994;1.796;2023-04-24T07:25:35;13.60;99.90
45283;DHT22;31023;44.994;1.796;2023-04-24T07:28:01;14.40;99.90
45283;DHT22;31023;44.994;1.796;2023-04-24T07:30:27;15.00;99.90
45283;DHT22;31023;44.994;1.796;2023-04-24T07:32:58;15.90;99.90
45283;DHT22;31023;44.994;1.796;2023-04-24T07:35:24;15.90;99.90
45283;DHT22;31023;44.994;1.796;2023-04-24T07:37:51;14.40;99.90
45283;DHT22;31023;44.994;1.796;2023-04-24T07:40:17;14.00;99.90
45283;DHT22;31023;44.994;1.796;2023-04-24T07:42:42;13.60;99.90
45283;DHT22;31023;44.994;1.796;2023-04-24T07:45:09;13.40;99.90
45283;DHT22;31023;44.994;1.796;2023-04-24T07:47:35;14.80;99.90
45283;DHT22;31023;44.994;1.796;2023-04-24T07:50:02;13.80;99.90
45283;DHT22;31023;44.994;1.796;2023-04-24T07:52:28;18.30;98.30
45283;DHT22;31023;44.994;1.796;2023-04-24T07:54:54;16.50;97.10
45283;DHT22;31023;44.994;1.796;2023-04-24T07:57:24;20.50;93.10
45283;DHT22;31023;44.994;1.796;2023-04-24T07:59:50;21.00;89.60
45283;DHT22;31023;44.994;1.796;2023-04-24T08:02:16;21.60;81.30
45283;DHT22;31023;44.994;1.796;2023-04-24T08:04:42;17.50;91.50
45283;DHT22;31023;44.994;1.796;2023-04-24T08:07:07;15.30;96.10
45283;DHT22;31023;44.994;1.796;2023-04-24T08:09:33;14.60;99.10
45283;DHT22;31023;44.994;1.796;2023-04-24T08:11:59;16.90;98.20
45283;DHT22;31023;44.994;1.796;2023-04-24T08:14:25;21.80;87.70
45283;DHT22;31023;44.994;1.796;2023-04-24T08:16:53;19.30;84.40
45283;DHT22;31023;44.994;1.796;2023-04-24T08:19:19;19.70;90.00
45283;DHT22;31023;44.994;1.796;2023-04-24T08:21:44;23.40;77.90
45283;DHT22;31023;44.994;1.796;2023-04-24T08:24:10;24.30;70.40
45283;DHT22;31023;44.994;1.796;2023-04-24T08:26:36;25.00;67.10
45283;DHT22;31023;44.994;1.796;2023-04-24T08:29:01;24.60;66.60
45283;DHT22;31023;44.994;1.796;2023-04-24T08:31:27;26.20;63.10
45283;DHT22;31023;44.994;1.796;2023-04-24T08:33:53;20.10;69.80
45283;DHT22;31023;44.994;1.796;2023-04-24T08:36:19;17.60;80.00
45283;DHT22;31023;44.994;1.796;2023-04-24T08:38:45;16.60;82.10
45283;DHT22;31023;44.994;1.796;2023-04-24T08:41:14;16.50;83.80
45283;DHT22;31023;44.994;1.796;2023-04-24T08:43:40;15.30;86.40
45283;DHT22;31023;44.994;1.796;2023-04-24T08:46:07;16.90;80.60
45283;DHT22;31023;44.994;1.796;2023-04-24T08:48:32;22.40;71.50
45283;DHT22;31023;44.994;1.796;2023-04-24T08:50:59;23.70;67.50
45283;DHT22;31023;44.994;1.796;2023-04-24T08:53:26;25.40;64.30
45283;DHT22;31023;44.994;1.796;2023-04-24T08:55:51;24.10;60.00
45283;DHT22;31023;44.994;1.796;2023-04-24T08:58:18;23.40;60.60
45283;DHT22;31023;44.994;1.796;2023-04-24T09:00:44;18.90;68.80
45283;DHT22;31023;44.994;1.796;2023-04-24T09:03:14;17.00;76.10
45283;DHT22;31023;44.994;1.796;2023-04-24T09:05:42;15.70;79.00
45283;DHT22;31023;44.994;1.796;2023-04-24T09:08:12;18.70;77.30
45283;DHT22;31023;44.994;1.796;2023-04-24T09:10:39;22.60;65.60
45283;DHT22;31023;44.994;1.796;2023-04-24T09:13:05;19.80;70.40
45283;DHT22;31023;44.994;1.796;2023-04-24T09:15:31;20.20;69.60
45283;DHT22;31023;44.994;1.796;2023-04-24T09:17:57;17.50;72.30
45283;DHT22;31023;44.994;1.796;2023-04-24T09:20:23;21.30;68.90
45283;DHT22;31023;44.994;1.796;2023-04-24T09:22:54;22.30;65.40
45283;DHT22;31023;44.994;1.796;2023-04-24T09:25:21;22.80;64.40
45283;DHT22;31023;44.994;1.796;2023-04-24T09:27:47;22.30;65.40
45283;DHT22;31023;44.994;1.796;2023-04-24T09:30:13;23.40;62.10
45283;DHT22;31023;44.994;1.796;2023-04-24T09:32:39;22.60;57.80
45283;DHT22;31023;44.994;1.796;2023-04-24T09:37:36;25.70;59.50
45283;DHT22;31023;44.994;1.796;2023-04-24T09:40:16;22.70;57.00
45283;DHT22;31023;44.994;1.796;2023-04-24T09:42:53;20.40;63.90
45283;DHT22;31023;44.994;1.796;2023-04-24T09:45:20;20.60;62.90
45283;DHT22;31023;44.994;1.796;2023-04-24T09:47:46;19.40;64.30
45283;DHT22;31023;44.994;1.796;2023-04-24T09:50:13;19.80;63.30
45283;DHT22;31023;44.994;1.796;2023-04-24T09:52:40;18.20;67.20
45283;DHT22;31023;44.994;1.796;2023-04-24T09:55:19;20.40;68.10
45283;DHT22;31023;44.994;1.796;2023-04-24T09:57:57;21.60;61.10
45283;DHT22;31023;44.994;1.796;2023-04-24T10:00:30;22.10;58.10
45283;DHT22;31023;44.994;1.796;2023-04-24T10:03:00;22.30;59.80
45283;DHT22;31023;44.994;1.796;2023-04-24T10:05:33;22.10;60.00
45283;DHT22;31023;44.994;1.796;2023-04-24T10:08:06;23.30;59.50
45283;DHT22;31023;44.994;1.796;2023-04-24T10:10:33;24.20;57.30
45283;DHT22;31023;44.994;1.796;2023-04-24T10:13:00;21.90;58.60
45283;DHT22;31023;44.994;1.796;2023-04-24T10:15:27;22.10;56.20
45283;DHT22;31023;44.994;1.796;2023-04-24T10:17:53;22.10;59.20
45283;DHT22;31023;44.994;1.796;2023-04-24T10:20:23;21.90;58.70
45283;DHT22;31023;44.994;1.796;2023-04-24T10:22:51;21.30;57.80
45283;DHT22;31023;44.994;1.796;2023-04-24T10:25:23;21.60;60.10
45283;DHT22;31023;44.994;1.796;2023-04-24T10:27:50;19.90;60.70
45283;DHT22;31023;44.994;1.796;2023-04-24T10:30:17;20.80;60.80
45283;DHT22;31023;44.994;1.796;2023-04-24T10:32:43;20.40;63.40
45283;DHT22;31023;44.994;1.796;2023-04-24T10:35:10;20.20;61.30
45283;DHT22;31023;44.994;1.796;2023-04-24T10:37:39;19.80;61.80
45283;DHT22;31023;44.994;1.796;2023-04-24T10:40:07;20.00;61.00
45283;DHT22;31023;44.994;1.796;2023-04-24T10:42:34;19.60;62.10
45283;DHT22;31023;44.994;1.796;2023-04-24T10:45:05;19.20;65.00
45283;DHT22;31023;44.994;1.796;2023-04-24T10:47:40;19.60;63.90
45283;DHT22;31023;44.994;1.796;2023-04-24T10:50:12;19.70;63.30
45283;DHT22;31023;44.994;1.796;2023-04-24T10:52:48;19.20;64.10
45283;DHT22;31023;44.994;1.796;2023-04-24T10:55:16;18.00;63.30
45283;DHT22;31023;44.994;1.796;2023-04-24T10:58:04;18.40;65.30
45283;DHT22;31023;44.994;1.796;2023-04-24T11:00:30;19.20;61.60
45283;DHT22;31023;44.994;1.796;2023-04-24T11:02:57;19.70;58.80
45283;DHT22;31023;44.994;1.796;2023-04-24T11:08:39;19.50;62.60
45283;DHT22;31023;44.994;1.796;2023-04-24T11:11:17;18.90;67.80
45283;DHT22;31023;44.994;1.796;2023-04-24T11:22:02;18.00;64.90
45283;DHT22;31023;44.994;1.796;2023-04-24T11:24:48;18.10;65.40
45283;DHT22;31023;44.994;1.796;2023-04-24T11:27:20;17.70;65.00
45283;DHT22;31023;44.994;1.796;2023-04-24T11:32:26;18.40;66.60
45283;DHT22;31023;44.994;1.796;2023-04-24T11:35:02;18.40;67.60
45283;DHT22;31023;44.994;1.796;2023-04-24T11:37:41;18.90;67.50
45283;DHT22;31023;44.994;1.796;2023-04-24T11:40:10;18.90;68.00
45283;DHT22;31023;44.994;1.796;2023-04-24T11:42:37;19.20;64.00
45283;DHT22;31023;44.994;1.796;2023-04-24T11:45:08;18.90;63.20
45283;DHT22;31023;44.994;1.796;2023-04-24T11:47:34;18.60;63.30
45283;DHT22;31023;44.994;1.796;2023-04-24T11:50:01;18.30;66.00
45283;DHT22;31023;44.994;1.796;2023-04-24T11:52:27;19.20;64.90
45283;DHT22;31023;44.994;1.796;2023-04-24T11:54:53;19.00;65.50
45283;DHT22;31023;44.994;1.796;2023-04-24T11:57:19;19.00;65.60
45283;DHT22;31023;44.994;1.796;2023-04-24T11:59:46;18.90;64.70
45283;DHT22;31023;44.994;1.796;2023-04-24T12:02:30;18.70;65.30
45283;DHT22;31023;44.994;1.796;2023-04-24T12:04:56;18.30;66.30
45283;DHT22;31023;44.994;1.796;2023-04-24T12:07:23;18.00;64.10
45283;DHT22;31023;44.994;1.796;2023-04-24T12:09:57;18.20;63.00
45283;DHT22;31023;44.994;1.796;2023-04-24T12:12:26;19.10;65.70
45283;DHT22;31023;44.994;1.796;2023-04-24T12:14:58;20.10;66.60
45283;DHT22;31023;44.994;1.796;2023-04-24T12:17:32;20.00;63.60
45283;DHT22;31023;44.994;1.796;2023-04-24T12:20:05;19.50;61.50
45283;DHT22;31023;44.994;1.796;2023-04-24T12:22:50;19.10;62.90
45283;DHT22;31023;44.994;1.796;2023-04-24T12:25:17;19.00;63.00
45283;DHT22;31023;44.994;1.796;2023-04-24T12:27:44;18.60;62.30
45283;DHT22;31023;44.994;1.796;2023-04-24T12:30:15;18.70;65.40
45283;DHT22;31023;44.994;1.796;2023-04-24T12:32:48;18.90;63.20
45283;DHT22;31023;44.994;1.796;2023-04-24T12:35:19;18.90;59.20
45283;DHT22;31023;44.994;1.796;2023-04-24T12:37:46;18.70;63.40
45283;DHT22;31023;44.994;1.796;2023-04-24T12:40:13;18.90;63.80
45283;DHT22;31023;44.994;1.796;2023-04-24T12:42:49;19.20;65.60
45283;DHT22;31023;44.994;1.796;2023-04-24T12:45:16;18.90;65.70
45283;DHT22;31023;44.994;1.796;2023-04-24T12:47:43;18.10;66.10
45283;DHT22;31023;44.994;1.796;2023-04-24T12:50:11;18.80;66.70
45283;DHT22;31023;44.994;1.796;2023-04-24T12:52:37;18.20;67.10
45283;DHT22;31023;44.994;1.796;2023-04-24T12:55:04;17.70;66.80
45283;DHT22;31023;44.994;1.796;2023-04-24T12:57:31;17.90;66.70
45283;DHT22;31023;44.994;1.796;2023-04-24T12:59:58;18.30;66.00
45283;DHT22;31023;44.994;1.796;2023-04-24T13:02:24;18.80;65.90
45283;DHT22;31023;44.994;1.796;2023-04-24T13:04:52;19.40;65.80
45283;DHT22;31023;44.994;1.796;2023-04-24T13:07:18;19.20;64.40
45283;DHT22;31023;44.994;1.796;2023-04-24T13:09:44;19.30;63.40
45283;DHT22;31023;44.994;1.796;2023-04-24T13:12:11;19.50;63.90
45283;DHT22;31023;44.994;1.796;2023-04-24T13:14:37;19.80;63.70
45283;DHT22;31023;44.994;1.796;2023-04-24T13:17:02;19.30;64.60
45283;DHT22;31023;44.994;1.796;2023-04-24T13:19:29;18.70;63.50
45283;DHT22;31023;44.994;1.796;2023-04-24T13:21:56;18.50;63.00
45283;DHT22;31023;44.994;1.796;2023-04-24T13:24:23;18.50;64.50
45283;DHT22;31023;44.994;1.796;2023-04-24T13:26:54;18.80;66.50
45283;DHT22;31023;44.994;1.796;2023-04-24T13:29:22;18.90;68.80
45283;DHT22;31023;44.994;1.796;2023-04-24T13:31:49;19.10;63.40
45283;DHT22;31023;44.994;1.796;2023-04-24T13:34:15;18.70;63.90
45283;DHT22;31023;44.994;1.796;2023-04-24T13:36:41;18.20;64.80
45283;DHT22;31023;44.994;1.796;2023-04-24T13:39:06;18.30;61.30
45283;DHT22;31023;44.994;1.796;2023-04-24T13:41:33;18.40;67.00
45283;DHT22;31023;44.994;1.796;2023-04-24T13:43:59;18.80;64.80
45283;DHT22;31023;44.994;1.796;2023-04-24T13:46:24;19.10;64.80
45283;DHT22;31023;44.994;1.796;2023-04-24T13:48:50;18.60;65.10
45283;DHT22;31023;44.994;1.796;2023-04-24T13:51:16;19.00;66.60
45283;DHT22;31023;44.994;1.796;2023-04-24T13:53:41;19.00;69.60
45283;DHT22;31023;44.994;1.796;2023-04-24T13:56:07;18.60;67.20
45283;DHT22;31023;44.994;1.796;2023-04-24T13:58:34;18.40;69.30
45283;DHT22;31023;44.994;1.796;2023-04-24T14:01:02;18.10;66.60
45283;DHT22;31023;44.994;1.796;2023-04-24T14:03:28;18.00;65.90
45283;DHT22;31023;44.994;1.796;2023-04-24T14:05:54;18.00;61.80
45283;DHT22;31023;44.994;1.796;2023-04-24T14:08:20;18.20;63.00
45283;DHT22;31023;44.994;1.796;2023-04-24T14:10:45;17.80;64.70
45283;DHT22;31023;44.994;1.796;2023-04-24T14:13:11;18.30;66.80
45283;DHT22;31023;44.994;1.796;2023-04-24T14:15:37;18.70;65.70
45283;DHT22;31023;44.994;1.796;2023-04-24T14:18:03;18.40;65.60
45283;DHT22;31023;44.994;1.796;2023-04-24T14:20:29;18.40;69.70
45283;DHT22;31023;44.994;1.796;2023-04-24T14:22:55;18.00;69.00
45283;DHT22;31023;44.994;1.796;2023-04-24T14:25:23;17.80;68.30
45283;DHT22;31023;44.994;1.796;2023-04-24T14:27:49;17.90;64.90
45283;DHT22;31023;44.994;1.796;2023-04-24T14:30:15;17.90;67.50
45283;DHT22;31023;44.994;1.796;2023-04-24T14:32:41;17.70;67.50
45283;DHT22;31023;44.994;1.796;2023-04-24T14:35:07;17.40;67.10
45283;DHT22;31023;44.994;1.796;2023-04-24T14:37:33;17.40;68.40
45283;DHT22;31023;44.994;1.796;2023-04-24T14:39:58;17.40;66.30
45283;DHT22;31023;44.994;1.796;2023-04-24T14:42:24;17.80;67.40
45283;DHT22;31023;44.994;1.796;2023-04-24T14:44:51;17.30;68.40
45283;DHT22;31023;44.994;1.796;2023-04-24T14:47:16;17.70;67.60
45283;DHT22;31023;44.994;1.796;2023-04-24T14:49:47;17.60;69.30
45283;DHT22;31023;44.994;1.796;2023-04-24T14:52:13;17.50;70.80
45283;DHT22;31023;44.994;1.796;2023-04-24T14:54:39;17.10;68.40
45283;DHT22;31023;44.994;1.796;2023-04-24T14:57:05;17.40;68.00
45283;DHT22;31023;44.994;1.796;2023-04-24T14:59:31;17.60;65.60
45283;DHT22;31023;44.994;1.796;2023-04-24T15:01:57;17.70;66.70
45283;DHT22;31023;44.994;1.796;2023-04-24T15:04:26;17.50;67.30
45283;DHT22;31023;44.994;1.796;2023-04-24T15:06:53;17.80;68.60
45283;DHT22;31023;44.994;1.796;2023-04-24T15:09:20;17.80;67.80
45283;DHT22;31023;44.994;1.796;2023-04-24T15:11:46;17.70;67.20
45283;DHT22;31023;44.994;1.796;2023-04-24T15:14:12;17.90;69.40
45283;DHT22;31023;44.994;1.796;2023-04-24T15:16:38;17.80;67.30
45283;DHT22;31023;44.994;1.796;2023-04-24T15:19:03;18.30;68.90
45283;DHT22;31023;44.994;1.796;2023-04-24T15:21:29;18.50;67.70
45283;DHT22;31023;44.994;1.796;2023-04-24T15:23:55;18.40;67.40
45283;DHT22;31023;44.994;1.796;2023-04-24T15:26:20;18.20;68.50
45283;DHT22;31023;44.994;1.796;2023-04-24T15:28:46;18.20;69.90
45283;DHT22;31023;44.994;1.796;2023-04-24T15:31:12;17.80;67.70
45283;DHT22;31023;44.994;1.796;2023-04-24T15:33:38;17.60;68.40
45283;DHT22;31023;44.994;1.796;2023-04-24T15:36:04;17.30;68.70
45283;DHT22;31023;44.994;1.796;2023-04-24T15:38:30;16.80;69.50
45283;DHT22;31023;44.994;1.796;2023-04-24T15:40:56;16.90;71.50
45283;DHT22;31023;44.994;1.796;2023-04-24T15:43:22;16.60;69.90
45283;DHT22;31023;44.994;1.796;2023-04-24T15:45:51;16.30;70.70
45283;DHT22;31023;44.994;1.796;2023-04-24T15:48:16;16.50;71.60